sensor_id;sensor_type;location;lat;lon;timestamp;pressure;altitude;pressure_sealevel;temperature;humidity
33554;BME280;19885;42.208;24.952;2023-01-19T00:02:19;98985.03;;;12.89;86.60
33554;BME280;19885;42.208;24.952;2023-01-19T00:04:45;98976.50;;;12.78;85.83
33554;BME280;19885;42.208;24.952;2023-01-19T00:07:11;98988.88;;;12.67;87.01
33554;BME280;19885;42.208;24.952;2023-01-19T00:09:39;98983.16;;;12.43;88.51
33554;BME280;19885;42.208;24.952;2023-01-19T00:12:04;99005.66;;;12.53;88.74
33554;BME280;19885;42.208;24.952;2023-01-19T00:14:30;98978.22;;;12.23;89.01
33554;BME280;19885;42.208;24.952;2023-01-19T00:16:56;98993.03;;;12.24;91.06
33554;BME280;19885;42.208;24.952;2023-01-19T00:19:21;98901.53;;;11.68;92.16
33554;BME280;19885;42.208;24.952;2023-01-19T00:21:47;98998.38;;;12.15;92.92
33554;BME280;19885;42.208;24.952;2023-01-19T00:24:18;99015.53;;;12.31;91.91
33554;BME280;19885;42.208;24.952;2023-01-19T00:26:44;99012.22;;;12.20;92.00
33554;BME280;19885;42.208;24.952;2023-01-19T00:29:10;99016.81;;;12.03;93.77
33554;BME280;19885;42.208;24.952;2023-01-19T00:31:36;99013.28;;;12.04;94.68
33554;BME280;19885;42.208;24.952;2023-01-19T00:34:05;99007.31;;;11.96;95.34
33554;BME280;19885;42.208;24.952;2023-01-19T00:36:32;99015.88;;;12.07;95.01
33554;BME280;19885;42.208;24.952;2023-01-19T00:38:58;99007.19;;;12.08;95.92
33554;BME280;19885;42.208;24.952;2023-01-19T00:41:24;99005.22;;;12.22;93.40
33554;BME280;19885;42.208;24.952;2023-01-19T00:44:08;99009.06;;;11.97;94.13
33554;BME280;19885;42.208;24.952;2023-01-19T00:46:33;99018.59;;;12.01;93.90
33554;BME280;19885;42.208;24.952;2023-01-19T00:48:59;99035.19;;;11.97;93.91
33554;BME280;19885;42.208;24.952;2023-01-19T00:51:24;99016.16;;;11.84;94.41
33554;BME280;19885;42.208;24.952;2023-01-19T00:53:53;99030.91;;;11.90;94.39
33554;BME280;19885;42.208;24.952;2023-01-19T00:56:18;99024.88;;;11.85;95.38
33554;BME280;19885;42.208;24.952;2023-01-19T00:58:44;99019.72;;;11.80;95.92
33554;BME280;19885;42.208;24.952;2023-01-19T01:01:10;99037.88;;;11.89;96.05
33554;BME280;19885;42.208;24.952;2023-01-19T01:03:36;99023.09;;;11.87;95.80
33554;BME280;19885;42.208;24.952;2023-01-19T01:06:01;99011.59;;;12.03;94.39
33554;BME280;19885;42.208;24.952;2023-01-19T01:08:28;99015.00;;;12.08;94.65
33554;BME280;19885;42.208;24.952;2023-01-19T01:10:54;99025.16;;;12.31;93.16
33554;BME280;19885;42.208;24.952;2023-01-19T01:13:20;98981.09;;;12.05;92.72
33554;BME280;19885;42.208;24.952;2023-01-19T01:15:48;99023.53;;;12.21;92.40
33554;BME280;19885;42.208;24.952;2023-01-19T01:18:14;99011.25;;;12.29;91.32
33554;BME280;19885;42.208;24.952;2023-01-19T01:20:39;99019.19;;;12.21;92.18
33554;BME280;19885;42.208;24.952;2023-01-19T01:23:07;99002.75;;;12.11;91.91
33554;BME280;19885;42.208;24.952;2023-01-19T01:25:33;98974.59;;;11.68;92.22
33554;BME280;19885;42.208;24.952;2023-01-19T01:28:02;99028.97;;;12.04;92.80
33554;BME280;19885;42.208;24.952;2023-01-19T01:30:29;99028.94;;;12.07;92.62
33554;BME280;19885;42.208;24.952;2023-01-19T01:32:54;99020.03;;;12.20;91.41
33554;BME280;19885;42.208;24.952;2023-01-19T01:35:20;99021.81;;;12.20;90.82
33554;BME280;19885;42.208;24.952;2023-01-19T01:37:48;99016.03;;;11.96;91.55
33554;BME280;19885;42.208;24.952;2023-01-19T01:40:20;99029.06;;;11.98;92.01
33554;BME280;19885;42.208;24.952;2023-01-19T01:42:51;99038.16;;;11.62;92.84
33554;BME280;19885;42.208;24.952;2023-01-19T01:47:47;99016.38;;;11.65;93.62
33554;BME280;19885;42.208;24.952;2023-01-19T01:50:24;99031.13;;;11.70;93.82
33554;BME280;19885;42.208;24.952;2023-01-19T01:53:14;99021.53;;;11.74;93.49
33554;BME280;19885;42.208;24.952;2023-01-19T01:55:43;99007.75;;;11.57;94.32
33554;BME280;19885;42.208;24.952;2023-01-19T01:58:11;99024.25;;;11.60;95.02
33554;BME280;19885;42.208;24.952;2023-01-19T02:00:38;99031.09;;;11.73;94.89
33554;BME280;19885;42.208;24.952;2023-01-19T02:03:24;99020.53;;;11.84;94.52
33554;BME280;19885;42.208;24.952;2023-01-19T02:05:50;99020.59;;;11.78;94.18
33554;BME280;19885;42.208;24.952;2023-01-19T02:08:27;99030.19;;;11.79;93.90
33554;BME280;19885;42.208;24.952;2023-01-19T02:11:15;99036.81;;;11.23;96.03
33554;BME280;19885;42.208;24.952;2023-01-19T02:13:59;99024.34;;;11.53;94.76
33554;BME280;19885;42.208;24.952;2023-01-19T02:16:27;99020.75;;;11.63;94.74
33554;BME280;19885;42.208;24.952;2023-01-19T02:18:54;99015.63;;;11.54;95.61
33554;BME280;19885;42.208;24.952;2023-01-19T02:21:45;99032.19;;;11.49;96.20
33554;BME280;19885;42.208;24.952;2023-01-19T02:24:15;99025.19;;;11.55;96.52
33554;BME280;19885;42.208;24.952;2023-01-19T02:26:43;99031.13;;;11.70;95.86
33554;BME280;19885;42.208;24.952;2023-01-19T02:29:21;99030.13;;;11.82;94.39
33554;BME280;19885;42.208;24.952;2023-01-19T02:31:47;99037.00;;;11.89;93.12
33554;BME280;19885;42.208;24.952;2023-01-19T02:34:14;99031.03;;;11.81;93.47
33554;BME280;19885;42.208;24.952;2023-01-19T02:39:30;99038.88;;;11.78;93.56
33554;BME280;19885;42.208;24.952;2023-01-19T02:42:04;99026.63;;;11.83;92.67
33554;BME280;19885;42.208;24.952;2023-01-19T02:44:32;99042.31;;;11.83;92.22
33554;BME280;19885;42.208;24.952;2023-01-19T02:46:59;99043.81;;;11.17;94.32
33554;BME280;19885;42.208;24.952;2023-01-19T02:49:30;99032.47;;;11.22;94.89
33554;BME280;19885;42.208;24.952;2023-01-19T02:51:56;99028.00;;;11.38;94.04
33554;BME280;19885;42.208;24.952;2023-01-19T03:08:16;99050.88;;;11.06;93.86
33554;BME280;19885;42.208;24.952;2023-01-19T03:11:07;99064.59;;;11.26;93.27
33554;BME280;19885;42.208;24.952;2023-01-19T03:14:06;99068.22;;;11.10;93.53
33554;BME280;19885;42.208;24.952;2023-01-19T03:16:44;99050.88;;;11.04;94.15
33554;BME280;19885;42.208;24.952;2023-01-19T03:19:20;99053.31;;;11.25;93.31
33554;BME280;19885;42.208;24.952;2023-01-19T03:21:50;99066.16;;;11.46;92.08
33554;BME280;19885;42.208;24.952;2023-01-19T03:24:20;99061.72;;;11.53;90.56
33554;BME280;19885;42.208;24.952;2023-01-19T03:26:55;99044.34;;;11.54;89.76
33554;BME280;19885;42.208;24.952;2023-01-19T03:29:27;99053.75;;;11.68;89.69
33554;BME280;19885;42.208;24.952;2023-01-19T03:31:55;99057.97;;;11.83;88.48
33554;BME280;19885;42.208;24.952;2023-01-19T03:34:24;99045.75;;;11.85;88.05
33554;BME280;19885;42.208;24.952;2023-01-19T03:36:54;99042.31;;;11.83;87.62
33554;BME280;19885;42.208;24.952;2023-01-19T03:39:23;99047.53;;;11.83;87.36
33554;BME280;19885;42.208;24.952;2023-01-19T03:42:04;99052.75;;;11.80;86.98
33554;BME280;19885;42.208;24.952;2023-01-19T03:44:32;99057.97;;;11.83;86.72
33554;BME280;19885;42.208;24.952;2023-01-19T03:46:59;99033.13;;;11.44;87.61
33554;BME280;19885;42.208;24.952;2023-01-19T03:49:29;99054.69;;;11.63;87.54
33554;BME280;19885;42.208;24.952;2023-01-19T03:51:55;99061.59;;;11.67;87.11
33554;BME280;19885;42.208;24.952;2023-01-19T03:54:23;99036.50;;;11.52;87.49
33554;BME280;19885;42.208;24.952;2023-01-19T03:56:49;99047.91;;;11.43;87.75
33554;BME280;19885;42.208;24.952;2023-01-19T03:59:16;99059.19;;;11.45;88.34
33554;BME280;19885;42.208;24.952;2023-01-19T04:01:42;99046.44;;;11.15;89.41
33554;BME280;19885;42.208;24.952;2023-01-19T04:04:07;99048.97;;;11.23;88.29
33554;BME280;19885;42.208;24.952;2023-01-19T04:06:33;99062.09;;;11.17;88.75
33554;BME280;19885;42.208;24.952;2023-01-19T04:08:58;99058.75;;;11.01;89.41
33554;BME280;19885;42.208;24.952;2023-01-19T04:11:24;99057.06;;;10.91;89.66
33554;BME280;19885;42.208;24.952;2023-01-19T04:13:49;99065.50;;;11.23;89.63
33554;BME280;19885;42.208;24.952;2023-01-19T04:16:15;99058.53;;;11.25;88.55
33554;BME280;19885;42.208;24.952;2023-01-19T04:18:45;99057.69;;;11.23;87.23
33554;BME280;19885;42.208;24.952;2023-01-19T04:21:10;99084.63;;;11.22;87.94
33554;BME280;19885;42.208;24.952;2023-01-19T04:23:36;99084.72;;;11.12;88.20
33554;BME280;19885;42.208;24.952;2023-01-19T04:26:06;99065.84;;;10.83;90.02
33554;BME280;19885;42.208;24.952;2023-01-19T04:28:34;99081.44;;;10.84;90.03
33554;BME280;19885;42.208;24.952;2023-01-19T04:31:03;99081.38;;;10.93;89.91
33554;BME280;19885;42.208;24.952;2023-01-19T04:33:29;98983.69;;;10.38;89.53
33554;BME280;19885;42.208;24.952;2023-01-19T04:35:55;99081.38;;;10.93;89.59
33554;BME280;19885;42.208;24.952;2023-01-19T04:38:24;99001.88;;;10.39;89.48
33554;BME280;19885;42.208;24.952;2023-01-19T04:40:52;99096.09;;;11.00;89.25
33554;BME280;19885;42.208;24.952;2023-01-19T04:43:23;99081.44;;;10.90;89.65
33554;BME280;19885;42.208;24.952;2023-01-19T04:45:48;99076.28;;;10.78;89.62
33554;BME280;19885;42.208;24.952;2023-01-19T04:48:14;99084.16;;;10.73;90.00
33554;BME280;19885;42.208;24.952;2023-01-19T04:50:40;99074.59;;;10.72;89.97
33554;BME280;19885;42.208;24.952;2023-01-19T04:53:06;99088.44;;;10.81;89.60
33554;BME280;19885;42.208;24.952;2023-01-19T04:55:32;99081.47;;;10.80;90.00
33554;BME280;19885;42.208;24.952;2023-01-19T04:57:57;99077.97;;;10.84;89.94
33554;BME280;19885;42.208;24.952;2023-01-19T05:00:27;99061.59;;;10.68;90.24
33554;BME280;19885;42.208;24.952;2023-01-19T05:02:52;99003.56;;;10.48;89.62
33554;BME280;19885;42.208;24.952;2023-01-19T05:05:21;99074.47;;;10.89;89.52
33554;BME280;19885;42.208;24.952;2023-01-19T05:07:52;99078.81;;;10.90;88.76
33554;BME280;19885;42.208;24.952;2023-01-19T05:10:20;99098.72;;;10.97;89.45
33554;BME280;19885;42.208;24.952;2023-01-19T05:12:45;99090.91;;;10.99;88.40
33554;BME280;19885;42.208;24.952;2023-01-19T05:15:11;99087.47;;;10.91;88.65
33554;BME280;19885;42.208;24.952;2023-01-19T05:17:36;99081.34;;;10.99;88.02
33554;BME280;19885;42.208;24.952;2023-01-19T05:20:02;99096.94;;;11.08;87.30
33554;BME280;19885;42.208;24.952;2023-01-19T05:22:28;99085.56;;;11.14;86.73
33554;BME280;19885;42.208;24.952;2023-01-19T05:24:53;99082.06;;;11.16;85.87
33554;BME280;19885;42.208;24.952;2023-01-19T05:27:19;99084.66;;;11.19;85.64
33554;BME280;19885;42.208;24.952;2023-01-19T05:29:44;99085.44;;;11.27;86.32
33554;BME280;19885;42.208;24.952;2023-01-19T05:32:10;99088.88;;;11.32;85.61
33554;BME280;19885;42.208;24.952;2023-01-19T05:34:36;99095.84;;;11.32;85.05
33554;BME280;19885;42.208;24.952;2023-01-19T05:37:02;99081.91;;;11.34;85.08
33554;BME280;19885;42.208;24.952;2023-01-19T05:39:27;99018.94;;;10.81;84.36
33554;BME280;19885;42.208;24.952;2023-01-19T05:41:54;99090.97;;;10.90;85.28
33554;BME280;19885;42.208;24.952;2023-01-19T05:44:23;99086.06;;;10.43;86.17
33554;BME280;19885;42.208;24.952;2023-01-19T05:46:49;99079.22;;;10.21;87.78
33554;BME280;19885;42.208;24.952;2023-01-19T05:49:14;99086.16;;;10.20;89.18
33554;BME280;19885;42.208;24.952;2023-01-19T05:51:40;99083.63;;;10.13;89.03
33554;BME280;19885;42.208;24.952;2023-01-19T05:54:12;99106.06;;;10.38;89.96
33554;BME280;19885;42.208;24.952;2023-01-19T05:56:39;99089.34;;;10.73;88.94
33554;BME280;19885;42.208;24.952;2023-01-19T05:59:05;99115.47;;;10.64;90.22
33554;BME280;19885;42.208;24.952;2023-01-19T06:01:30;99067.00;;;10.39;91.39
33554;BME280;19885;42.208;24.952;2023-01-19T06:03:57;99110.06;;;10.95;91.00
33554;BME280;19885;42.208;24.952;2023-01-19T06:06:22;99119.56;;;11.03;90.44
33554;BME280;19885;42.208;24.952;2023-01-19T06:08:48;99119.44;;;11.15;90.71
33554;BME280;19885;42.208;24.952;2023-01-19T06:11:13;99100.25;;;11.22;90.73
33554;BME280;19885;42.208;24.952;2023-01-19T06:13:39;99119.44;;;11.15;92.18
33554;BME280;19885;42.208;24.952;2023-01-19T06:16:05;99106.44;;;11.12;92.19
33554;BME280;19885;42.208;24.952;2023-01-19T06:18:30;99122.78;;;11.35;91.46
33554;BME280;19885;42.208;24.952;2023-01-19T06:20:56;99118.44;;;11.31;91.77
33554;BME280;19885;42.208;24.952;2023-01-19T06:23:25;99118.38;;;11.39;91.92
33554;BME280;19885;42.208;24.952;2023-01-19T06:25:51;99117.41;;;11.51;91.88
33554;BME280;19885;42.208;24.952;2023-01-19T06:28:17;99116.59;;;11.45;92.26
33554;BME280;19885;42.208;24.952;2023-01-19T06:30:47;99120.66;;;11.77;91.45
33554;BME280;19885;42.208;24.952;2023-01-19T06:33:12;99123.78;;;12.09;89.70
33554;BME280;19885;42.208;24.952;2023-01-19T06:35:42;99136.63;;;12.29;89.14
33554;BME280;19885;42.208;24.952;2023-01-19T06:38:07;99140.88;;;12.37;89.08
33554;BME280;19885;42.208;24.952;2023-01-19T06:40:33;99139.00;;;12.48;87.99
33554;BME280;19885;42.208;24.952;2023-01-19T06:43:01;99123.88;;;12.70;87.35
33554;BME280;19885;42.208;24.952;2023-01-19T06:45:26;99146.28;;;12.89;86.63
33554;BME280;19885;42.208;24.952;2023-01-19T06:47:54;99142.59;;;13.04;86.41
33554;BME280;19885;42.208;24.952;2023-01-19T06:50:19;99143.38;;;13.10;86.36
33554;BME280;19885;42.208;24.952;2023-01-19T06:52:50;99142.34;;;13.20;85.91
33554;BME280;19885;42.208;24.952;2023-01-19T06:55:16;99147.88;;;13.54;85.02
33554;BME280;19885;42.208;24.952;2023-01-19T06:57:42;99076.91;;;13.71;82.67
33554;BME280;19885;42.208;24.952;2023-01-19T07:00:10;99137.00;;;14.67;79.37
33554;BME280;19885;42.208;24.952;2023-01-19T07:02:45;99120.25;;;14.74;78.91
33554;BME280;19885;42.208;24.952;2023-01-19T07:05:10;99149.53;;;14.94;78.37
33554;BME280;19885;42.208;24.952;2023-01-19T07:07:38;99143.97;;;15.06;77.89
33554;BME280;19885;42.208;24.952;2023-01-19T07:10:07;99151.25;;;15.32;77.82
33554;BME280;19885;42.208;24.952;2023-01-19T07:12:34;99145.75;;;15.44;76.67
33554;BME280;19885;42.208;24.952;2023-01-19T07:14:59;99142.28;;;15.40;76.29
33554;BME280;19885;42.208;24.952;2023-01-19T07:17:27;99085.97;;;15.53;75.60
33554;BME280;19885;42.208;24.952;2023-01-19T07:19:53;99150.09;;;16.12;74.99
33554;BME280;19885;42.208;24.952;2023-01-19T07:22:18;99150.16;;;16.40;73.94
33554;BME280;19885;42.208;24.952;2023-01-19T07:24:43;99142.63;;;16.28;72.80
33554;BME280;19885;42.208;24.952;2023-01-19T07:27:09;99136.75;;;16.18;74.02
33554;BME280;19885;42.208;24.952;2023-01-19T07:29:36;99142.88;;;16.19;73.76
33554;BME280;19885;42.208;24.952;2023-01-19T07:32:02;99137.38;;;16.28;73.55
33554;BME280;19885;42.208;24.952;2023-01-19T07:34:27;99140.75;;;16.33;72.59
33554;BME280;19885;42.208;24.952;2023-01-19T07:36:54;99133.75;;;16.32;73.02
33554;BME280;19885;42.208;24.952;2023-01-19T07:39:20;99137.59;;;16.50;72.76
33554;BME280;19885;42.208;24.952;2023-01-19T07:41:47;99136.03;;;16.75;71.45
33554;BME280;19885;42.208;24.952;2023-01-19T07:44:13;99149.03;;;16.79;70.58
33554;BME280;19885;42.208;24.952;2023-01-19T07:46:38;99155.28;;;17.04;68.86
33554;BME280;19885;42.208;24.952;2023-01-19T07:49:04;99159.69;;;17.32;67.93
33554;BME280;19885;42.208;24.952;2023-01-19T07:51:30;99087.84;;;17.27;67.80
33554;BME280;19885;42.208;24.952;2023-01-19T07:53:55;99161.19;;;17.93;65.93
33554;BME280;19885;42.208;24.952;2023-01-19T07:56:20;99158.88;;;18.08;65.30
33554;BME280;19885;42.208;24.952;2023-01-19T07:58:47;99145.75;;;18.07;65.38
33554;BME280;19885;42.208;24.952;2023-01-19T08:01:14;99141.44;;;18.29;65.09
33554;BME280;19885;42.208;24.952;2023-01-19T08:03:39;99125.66;;;18.27;64.58
33554;BME280;19885;42.208;24.952;2023-01-19T08:06:05;99143.16;;;18.55;63.71
33554;BME280;19885;42.208;24.952;2023-01-19T08:08:32;99090.69;;;18.92;62.43
33554;BME280;19885;42.208;24.952;2023-01-19T08:10:58;99136.63;;;19.31;61.10
33554;BME280;19885;42.208;24.952;2023-01-19T08:13:24;99147.72;;;19.62;59.14
33554;BME280;19885;42.208;24.952;2023-01-19T08:15:51;99143.97;;;19.88;58.85
33554;BME280;19885;42.208;24.952;2023-01-19T08:18:18;99142.06;;;20.12;57.52
33554;BME280;19885;42.208;24.952;2023-01-19T08:20:44;99141.28;;;20.87;55.98
33554;BME280;19885;42.208;24.952;2023-01-19T08:23:10;99140.25;;;21.63;52.47
33554;BME280;19885;42.208;24.952;2023-01-19T08:25:41;99125.22;;;22.32;51.12
33554;BME280;19885;42.208;24.952;2023-01-19T08:28:09;99141.41;;;22.93;49.24
33554;BME280;19885;42.208;24.952;2023-01-19T08:30:35;99141.91;;;22.84;47.78
33554;BME280;19885;42.208;24.952;2023-01-19T08:33:00;99143.59;;;22.02;46.17
33554;BME280;19885;42.208;24.952;2023-01-19T08:35:33;99146.09;;;21.35;47.66
33554;BME280;19885;42.208;24.952;2023-01-19T08:37:59;99135.84;;;21.09;47.03
33554;BME280;19885;42.208;24.952;2023-01-19T08:40:30;99142.69;;;21.14;45.77
33554;BME280;19885;42.208;24.952;2023-01-19T08:42:58;99131.91;;;20.99;45.99
33554;BME280;19885;42.208;24.952;2023-01-19T08:45:25;99133.78;;;21.15;44.67
33554;BME280;19885;42.208;24.952;2023-01-19T08:47:54;99119.66;;;20.96;44.00
33554;BME280;19885;42.208;24.952;2023-01-19T08:50:20;99050.53;;;20.46;44.28
33554;BME280;19885;42.208;24.952;2023-01-19T08:52:46;99114.72;;;20.70;44.07
33554;BME280;19885;42.208;24.952;2023-01-19T08:55:12;99098.81;;;20.70;43.92
33554;BME280;19885;42.208;24.952;2023-01-19T08:57:37;99129.03;;;20.85;43.62
33554;BME280;19885;42.208;24.952;2023-01-19T09:00:03;99114.81;;;20.87;43.35
33554;BME280;19885;42.208;24.952;2023-01-19T09:02:32;99108.91;;;20.99;42.76
33554;BME280;19885;42.208;24.952;2023-01-19T09:04:58;99122.38;;;21.13;44.27
33554;BME280;19885;42.208;24.952;2023-01-19T09:07:23;99110.13;;;21.29;43.73
33554;BME280;19885;42.208;24.952;2023-01-19T09:09:49;99097.63;;;21.31;43.52
33554;BME280;19885;42.208;24.952;2023-01-19T09:12:14;99103.84;;;21.13;43.20
33554;BME280;19885;42.208;24.952;2023-01-19T09:14:39;99105.63;;;21.13;42.33
33554;BME280;19885;42.208;24.952;2023-01-19T09:17:05;99089.81;;;21.28;43.48
33554;BME280;19885;42.208;24.952;2023-01-19T09:19:30;99090.97;;;21.59;42.61
33554;BME280;19885;42.208;24.952;2023-01-19T09:21:56;99092.97;;;21.54;43.28
33554;BME280;19885;42.208;24.952;2023-01-19T09:24:23;99093.75;;;21.56;41.31
33554;BME280;19885;42.208;24.952;2023-01-19T09:26:49;99093.19;;;21.85;43.41
33554;BME280;19885;42.208;24.952;2023-01-19T09:29:14;99084.69;;;21.95;42.59
33554;BME280;19885;42.208;24.952;2023-01-19T09:31:41;99090.47;;;21.86;41.73
33554;BME280;19885;42.208;24.952;2023-01-19T09:34:07;99073.38;;;21.92;44.14
33554;BME280;19885;42.208;24.952;2023-01-19T09:36:33;99080.22;;;21.96;43.53
33554;BME280;19885;42.208;24.952;2023-01-19T09:39:00;99069.31;;;21.85;43.05
33554;BME280;19885;42.208;24.952;2023-01-19T09:41:27;99076.28;;;21.87;42.21
33554;BME280;19885;42.208;24.952;2023-01-19T09:43:56;99082.41;;;21.88;42.91
33554;BME280;19885;42.208;24.952;2023-01-19T09:46:39;99072.28;;;21.96;42.83
33554;BME280;19885;42.208;24.952;2023-01-19T09:49:16;99081.16;;;22.12;43.51
33554;BME280;19885;42.208;24.952;2023-01-19T09:51:46;99066.47;;;22.05;42.62
33554;BME280;19885;42.208;24.952;2023-01-19T09:54:23;99071.50;;;21.94;43.54
33554;BME280;19885;42.208;24.952;2023-01-19T09:56:52;99071.06;;;22.01;43.43
33554;BME280;19885;42.208;24.952;2023-01-19T09:59:24;99068.66;;;22.14;43.99
33554;BME280;19885;42.208;24.952;2023-01-19T10:04:57;98988.16;;;21.64;41.84
33554;BME280;19885;42.208;24.952;2023-01-19T10:10:22;99042.03;;;22.31;40.65
33554;BME280;19885;42.208;24.952;2023-01-19T10:20:20;99018.69;;;22.53;39.96
33554;BME280;19885;42.208;24.952;2023-01-19T10:22:49;99029.53;;;22.82;39.71
33554;BME280;19885;42.208;24.952;2023-01-19T10:25:18;99030.66;;;22.62;38.52
33554;BME280;19885;42.208;24.952;2023-01-19T10:27:45;99018.34;;;22.59;40.29
33554;BME280;19885;42.208;24.952;2023-01-19T10:30:18;98979.63;;;22.55;37.58
33554;BME280;19885;42.208;24.952;2023-01-19T10:32:50;99028.91;;;22.77;39.41
33554;BME280;19885;42.208;24.952;2023-01-19T10:35:19;99017.44;;;22.60;41.05
33554;BME280;19885;42.208;24.952;2023-01-19T10:37:54;98964.28;;;22.29;41.43
33554;BME280;19885;42.208;24.952;2023-01-19T10:40:36;99010.31;;;22.77;39.94
33554;BME280;19885;42.208;24.952;2023-01-19T10:43:42;99012.16;;;23.06;38.17
33554;BME280;19885;42.208;24.952;2023-01-19T10:46:57;99010.53;;;23.19;37.60
33554;BME280;19885;42.208;24.952;2023-01-19T10:49:03;99005.16;;;23.05;36.16
33554;BME280;19885;42.208;24.952;2023-01-19T10:51:29;99003.38;;;23.19;36.72
33554;BME280;19885;42.208;24.952;2023-01-19T10:53:57;98992.91;;;23.32;36.58
33554;BME280;19885;42.208;24.952;2023-01-19T10:56:28;98931.75;;;23.02;35.07
33554;BME280;19885;42.208;24.952;2023-01-19T10:58:55;98942.94;;;23.23;33.54
33554;BME280;19885;42.208;24.952;2023-01-19T11:01:24;98990.97;;;23.50;32.98
33554;BME280;19885;42.208;24.952;2023-01-19T11:03:51;98993.38;;;23.54;34.26
33554;BME280;19885;42.208;24.952;2023-01-19T11:06:20;98996.56;;;23.45;33.54
33554;BME280;19885;42.208;24.952;2023-01-19T11:08:47;98992.16;;;23.60;34.16
33554;BME280;19885;42.208;24.952;2023-01-19T11:11:16;98981.78;;;23.69;32.87
33554;BME280;19885;42.208;24.952;2023-01-19T11:13:43;98986.75;;;24.03;30.91
33554;BME280;19885;42.208;24.952;2023-01-19T11:16:21;98983.16;;;24.04;32.01
33554;BME280;19885;42.208;24.952;2023-01-19T11:18:53;98987.66;;;24.32;32.08
33554;BME280;19885;42.208;24.952;2023-01-19T11:21:24;98979.00;;;24.15;30.54
33554;BME280;19885;42.208;24.952;2023-01-19T11:24:09;98988.66;;;23.73;29.63
33554;BME280;19885;42.208;24.952;2023-01-19T11:26:45;98984.47;;;23.83;30.97
33554;BME280;19885;42.208;24.952;2023-01-19T11:29:21;98983.72;;;23.81;30.55
33554;BME280;19885;42.208;24.952;2023-01-19T11:31:49;98976.97;;;23.76;31.79
33554;BME280;19885;42.208;24.952;2023-01-19T11:34:34;98986.00;;;23.73;31.55
33554;BME280;19885;42.208;24.952;2023-01-19T11:37:27;98990.47;;;23.73;32.12
33554;BME280;19885;42.208;24.952;2023-01-19T11:39:58;98985.50;;;23.53;32.25
33554;BME280;19885;42.208;24.952;2023-01-19T11:42:27;98986.97;;;24.00;34.03
33554;BME280;19885;42.208;24.952;2023-01-19T11:47:52;98977.41;;;23.54;30.02
33554;BME280;19885;42.208;24.952;2023-01-19T11:50:26;98929.31;;;23.43;31.98
33554;BME280;19885;42.208;24.952;2023-01-19T11:53:21;98993.13;;;23.73;32.61
33554;BME280;19885;42.208;24.952;2023-01-19T11:58:18;98973.75;;;23.11;32.63
33554;BME280;19885;42.208;24.952;2023-01-19T12:00:56;98988.91;;;22.80;34.47
33554;BME280;19885;42.208;24.952;2023-01-19T12:03:45;98985.22;;;22.66;34.63
33554;BME280;19885;42.208;24.952;2023-01-19T12:06:16;98983.66;;;22.62;35.74
33554;BME280;19885;42.208;24.952;2023-01-19T12:08:47;98992.25;;;22.67;35.08
33554;BME280;19885;42.208;24.952;2023-01-19T12:11:17;98978.78;;;22.39;33.94
33554;BME280;19885;42.208;24.952;2023-01-19T12:13:45;98986.97;;;22.19;34.08
33554;BME280;19885;42.208;24.952;2023-01-19T12:16:20;98995.72;;;22.21;35.18
33554;BME280;19885;42.208;24.952;2023-01-19T12:19:12;98984.13;;;22.07;35.10
33554;BME280;19885;42.208;24.952;2023-01-19T12:21:40;98978.16;;;21.86;35.20
33554;BME280;19885;42.208;24.952;2023-01-19T12:24:17;98989.72;;;21.68;34.79
33554;BME280;19885;42.208;24.952;2023-01-19T12:26:59;98987.06;;;21.68;37.38
33554;BME280;19885;42.208;24.952;2023-01-19T12:29:33;98978.84;;;21.72;35.36
33554;BME280;19885;42.208;24.952;2023-01-19T12:34:47;98907.78;;;20.95;35.17
33554;BME280;19885;42.208;24.952;2023-01-19T12:39:52;98982.50;;;21.37;35.29
33554;BME280;19885;42.208;24.952;2023-01-19T12:42:19;98972.50;;;21.42;35.74
33554;BME280;19885;42.208;24.952;2023-01-19T12:44:45;98969.78;;;21.26;35.54
33554;BME280;19885;42.208;24.952;2023-01-19T12:49:45;98975.50;;;21.00;34.67
33554;BME280;19885;42.208;24.952;2023-01-19T12:52:32;98982.50;;;21.01;34.64
33554;BME280;19885;42.208;24.952;2023-01-19T12:57:59;98977.88;;;21.06;33.39
33554;BME280;19885;42.208;24.952;2023-01-19T13:00:38;98964.63;;;21.06;35.31
33554;BME280;19885;42.208;24.952;2023-01-19T13:05:55;98959.19;;;20.91;32.57
33554;BME280;19885;42.208;24.952;2023-01-19T13:08:28;98971.59;;;20.90;32.11
33554;BME280;19885;42.208;24.952;2023-01-19T13:11:15;98970.75;;;20.90;33.03
33554;BME280;19885;42.208;24.952;2023-01-19T13:19:23;98987.78;;;20.84;34.24
33554;BME280;19885;42.208;24.952;2023-01-19T13:21:54;98991.59;;;20.79;34.80
33554;BME280;19885;42.208;24.952;2023-01-19T13:24:23;98925.97;;;20.31;35.48
33554;BME280;19885;42.208;24.952;2023-01-19T13:29:33;99001.47;;;20.75;35.07
33554;BME280;19885;42.208;24.952;2023-01-19T13:32:05;98998.06;;;20.73;36.27
33554;BME280;19885;42.208;24.952;2023-01-19T13:34:43;98998.16;;;20.53;35.90
33554;BME280;19885;42.208;24.952;2023-01-19T13:37:38;99007.56;;;20.58;35.75
33554;BME280;19885;42.208;24.952;2023-01-19T13:40:06;99013.97;;;20.54;35.70
33554;BME280;19885;42.208;24.952;2023-01-19T13:42:39;99008.78;;;20.51;36.66
33554;BME280;19885;42.208;24.952;2023-01-19T13:47:45;98993.84;;;20.50;37.24
33554;BME280;19885;42.208;24.952;2023-01-19T13:50:23;99004.03;;;20.41;36.80
33554;BME280;19885;42.208;24.952;2023-01-19T13:52:48;98993.22;;;20.27;37.80
33554;BME280;19885;42.208;24.952;2023-01-19T13:55:16;98923.63;;;19.67;39.59
33554;BME280;19885;42.208;24.952;2023-01-19T13:57:44;98997.06;;;19.81;39.65
33554;BME280;19885;42.208;24.952;2023-01-19T14:03:01;98794.22;;;18.26;40.47
33554;BME280;19885;42.208;24.952;2023-01-19T14:05:34;99006.00;;;19.58;40.39
33554;BME280;19885;42.208;24.952;2023-01-19T14:15:47;98993.22;;;19.28;40.67